createdAt,value
2022-09-06T00:01:52.449Z,13.84
2022-09-06T00:04:33.162Z,13.86
2022-09-06T00:07:13.600Z,13.84
2022-09-06T00:10:43.290Z,13.83
2022-09-06T00:13:44.228Z,13.83
2022-09-06T00:16:35.758Z,13.85
2022-09-06T00:19:07.402Z,13.85
2022-09-06T00:22:16.663Z,13.86
2022-09-06T00:25:38.061Z,13.87
2022-09-06T00:28:48.189Z,13.87
2022-09-06T00:31:35.542Z,13.85
2022-09-06T00:34:34.335Z,13.82
2022-09-06T00:37:41.288Z,13.80
2022-09-06T00:40:53.217Z,13.79
2022-09-06T00:43:34.525Z,13.78
2022-09-06T00:46:51.387Z,13.78
2022-09-06T00:50:05.432Z,13.78
2022-09-06T00:53:08.693Z,13.78
2022-09-06T00:55:45.853Z,13.75
2022-09-06T00:58:47.452Z,13.74
2022-09-06T01:01:39.395Z,13.73
2022-09-06T01:04:29.100Z,13.74
2022-09-06T01:08:08.318Z,13.72
2022-09-06T01:10:57.659Z,13.69
2022-09-06T01:14:21.804Z,13.68
2022-09-06T01:17:56.956Z,13.65
2022-09-06T01:20:42.119Z,13.65
2022-09-06T01:24:04.831Z,13.73
2022-09-06T01:27:10.424Z,13.84
2022-09-06T01:30:20.681Z,13.94
2022-09-06T01:33:14.246Z,14.01
2022-09-06T01:37:06.219Z,14.11
2022-09-06T01:40:30.709Z,14.19
2022-09-06T01:43:14.239Z,14.25
2022-09-06T01:46:18.042Z,14.32
2022-09-06T01:49:23.606Z,14.37
2022-09-06T01:52:36.835Z,14.41
2022-09-06T01:55:55.715Z,14.47
2022-09-06T01:58:53.025Z,14.53
2022-09-06T02:01:47.391Z,14.58
2022-09-06T02:04:47.230Z,14.64
2022-09-06T02:08:01.922Z,14.67
2022-09-06T02:11:10.895Z,14.67
2022-09-06T02:13:59.630Z,14.68
2022-09-06T02:17:03.686Z,14.66
2022-09-06T02:20:07.679Z,14.66
2022-09-06T02:23:06.821Z,14.66
2022-09-06T02:26:03.858Z,14.67
2022-09-06T02:29:11.589Z,14.66
2022-09-06T02:32:00.105Z,14.69
2022-09-06T02:34:48.176Z,14.71
2022-09-06T02:37:43.618Z,14.73
2022-09-06T02:41:13.073Z,14.73
2022-09-06T02:44:02.062Z,14.74
2022-09-06T02:46:45.363Z,14.76
2022-09-06T02:49:32.685Z,14.77
2022-09-06T02:52:23.055Z,14.79
2022-09-06T02:54:55.424Z,14.81
2022-09-06T02:57:42.778Z,14.82
2022-09-06T03:00:27.742Z,14.83
2022-09-06T03:03:13.940Z,14.82
2022-09-06T03:06:03.924Z,14.86
2022-09-06T03:08:55.855Z,14.88
2022-09-06T03:11:25.121Z,14.89
2022-09-06T03:14:12.888Z,14.90
2022-09-06T03:16:54.916Z,14.90
2022-09-06T03:19:27.031Z,14.91
2022-09-06T03:22:39.638Z,14.93
2022-09-06T03:25:16.436Z,14.93
2022-09-06T03:28:15.541Z,14.93
2022-09-06T03:30:53.700Z,14.94
2022-09-06T03:33:51.586Z,14.95
2022-09-06T03:36:35.770Z,14.96
2022-09-06T03:39:15.996Z,14.96
2022-09-06T03:42:28.784Z,14.97
2022-09-06T03:45:32.038Z,14.98
2022-09-06T03:48:11.404Z,15.00
2022-09-06T03:51:03.475Z,15.01
2022-09-06T03:54:24.518Z,15.02
2022-09-06T03:57:14.648Z,15.03
2022-09-06T04:00:27.431Z,15.05
2022-09-06T04:03:09.289Z,15.06
2022-09-06T04:06:27.400Z,15.05
2022-09-06T04:09:59.309Z,15.03
2022-09-06T04:12:39.846Z,15.00
2022-09-06T04:16:09.350Z,14.97
2022-09-06T04:18:49.878Z,14.96
2022-09-06T04:21:22.324Z,14.96
2022-09-06T04:24:43.279Z,14.95
2022-09-06T04:27:35.398Z,14.94
2022-09-06T04:30:33.043Z,14.96
2022-09-06T04:33:50.522Z,14.98
2022-09-06T04:36:33.130Z,15.01
2022-09-06T04:39:18.053Z,15.05
2022-09-06T04:42:09.525Z,15.08
2022-09-06T04:45:21.575Z,15.10
2022-09-06T04:48:05.491Z,15.14
2022-09-06T04:51:03.303Z,15.17
2022-09-06T04:53:41.000Z,15.20
2022-09-06T04:56:42.782Z,15.23
2022-09-06T04:59:58.202Z,15.26
2022-09-06T05:03:14.445Z,15.29
2022-09-06T05:06:14.255Z,15.35
2022-09-06T05:08:49.364Z,15.39
2022-09-06T05:11:21.270Z,15.43
2022-09-06T05:14:15.954Z,15.46
2022-09-06T05:17:15.671Z,15.50
2022-09-06T05:20:14.726Z,15.54
2022-09-06T05:22:54.438Z,15.57
2022-09-06T05:25:31.591Z,15.61
2022-09-06T05:28:08.716Z,15.64
2022-09-06T05:30:51.346Z,15.66
2022-09-06T05:33:30.980Z,15.68
2022-09-06T05:36:23.884Z,15.71
2022-09-06T05:39:22.092Z,15.74
2022-09-06T05:42:21.740Z,15.79
2022-09-06T05:45:02.534Z,15.83
2022-09-06T05:48:00.105Z,15.88
2022-09-06T05:50:46.925Z,15.92
2022-09-06T05:53:58.780Z,15.98
2022-09-06T05:56:38.766Z,16.04
2022-09-06T05:59:10.574Z,16.09
2022-09-06T06:01:58.598Z,16.14
2022-09-06T06:05:01.862Z,16.19
2022-09-06T06:07:30.445Z,16.25
2022-09-06T06:10:09.452Z,16.32
2022-09-06T06:13:01.199Z,16.43
2022-09-06T06:15:44.792Z,16.54
2022-09-06T06:18:24.034Z,16.64
2022-09-06T06:21:44.975Z,16.75
2022-09-06T06:24:39.720Z,16.89
2022-09-06T06:27:23.734Z,17.03
2022-09-06T06:30:09.707Z,17.16
2022-09-06T06:33:03.276Z,17.26
2022-09-06T06:36:05.241Z,17.00
2022-09-06T06:39:17.348Z,16.72
2022-09-06T06:41:51.054Z,16.57
2022-09-06T06:44:39.348Z,16.42
2022-09-06T06:47:11.788Z,16.30
2022-09-06T06:49:52.595Z,16.26
2022-09-06T06:52:24.565Z,16.49
2022-09-06T06:55:01.376Z,16.75
2022-09-06T06:57:44.735Z,16.96
2022-09-06T07:00:39.182Z,17.15
2022-09-06T07:03:32.662Z,17.30
2022-09-06T07:06:16.405Z,17.42
2022-09-06T07:08:46.622Z,17.54
2022-09-06T07:11:19.478Z,17.57
2022-09-06T07:13:50.549Z,17.33
2022-09-06T07:16:22.588Z,17.07
2022-09-06T07:18:53.047Z,16.87
2022-09-06T07:24:10.315Z,16.53
2022-09-06T07:26:40.325Z,16.40
2022-09-06T07:29:12.153Z,16.30
2022-09-06T07:34:33.898Z,16.10
2022-09-06T07:37:02.806Z,16.01
2022-09-06T07:39:33.306Z,15.94
2022-09-06T07:42:04.997Z,15.89
2022-09-06T07:44:33.800Z,15.83
2022-09-06T07:55:35.874Z,15.75
2022-09-06T07:58:04.978Z,15.78
2022-09-06T08:00:33.980Z,15.81
2022-09-06T08:03:07.571Z,15.85
2022-09-06T08:11:15.612Z,15.99
2022-09-06T08:13:45.014Z,16.03
2022-09-06T08:16:15.743Z,16.08
2022-09-06T08:18:47.814Z,16.13
2022-09-06T08:21:17.015Z,16.19
2022-09-06T08:23:49.820Z,16.26
2022-09-06T08:26:23.695Z,16.33
2022-09-06T08:29:03.005Z,16.40
2022-09-06T08:31:33.338Z,16.46
2022-09-06T08:34:02.939Z,16.49
2022-09-06T08:36:32.460Z,16.54
2022-09-06T08:39:06.468Z,16.58
2022-09-06T08:42:04.150Z,16.63
2022-09-06T08:44:57.639Z,16.72
2022-09-06T08:47:27.565Z,16.80
2022-09-06T08:50:02.556Z,16.87
2022-09-06T08:53:16.338Z,16.96
2022-09-06T08:55:55.081Z,17.07
2022-09-06T08:58:46.019Z,17.15
2022-09-06T09:01:27.733Z,17.23
2022-09-06T09:04:03.304Z,17.30
2022-09-06T09:06:32.982Z,17.38
2022-09-06T09:09:06.649Z,17.47
2022-09-06T09:11:36.542Z,17.58
2022-09-06T09:14:05.390Z,17.67
2022-09-06T09:16:35.106Z,17.77
2022-09-06T09:19:05.766Z,17.86
2022-09-06T09:21:40.745Z,17.95
2022-09-06T09:24:12.315Z,18.05
2022-09-06T09:26:57.872Z,18.14
2022-09-06T09:29:29.517Z,18.24
2022-09-06T09:32:00.204Z,18.37
2022-09-06T09:34:34.765Z,18.51
2022-09-06T09:40:28.711Z,18.81
2022-09-06T09:43:29.884Z,18.93
2022-09-06T09:46:16.768Z,19.07
2022-09-06T09:49:01.328Z,19.24
2022-09-06T09:51:32.801Z,19.39
2022-09-06T09:54:04.812Z,19.55
2022-09-06T09:56:52.998Z,19.68
2022-09-06T09:59:26.145Z,19.85
2022-09-06T10:02:01.719Z,19.99
2022-09-06T10:04:43.218Z,20.13
2022-09-06T10:07:18.476Z,20.26
2022-09-06T10:09:59.726Z,20.42
2022-09-06T10:12:33.489Z,20.62
2022-09-06T10:15:06.910Z,20.80
2022-09-06T10:17:50.192Z,20.96
2022-09-06T10:20:33.893Z,21.11
2022-09-06T10:23:12.613Z,21.27
2022-09-06T10:25:55.930Z,21.44
2022-09-06T10:28:44.414Z,21.60
2022-09-06T10:31:42.457Z,21.79
2022-09-06T10:34:35.883Z,22.00
2022-09-06T10:37:10.741Z,22.22
2022-09-06T10:40:07.165Z,22.41
2022-09-06T10:42:50.437Z,22.59
2022-09-06T10:45:24.847Z,22.77
2022-09-06T10:48:03.018Z,22.98
2022-09-06T10:50:46.511Z,23.22
2022-09-06T10:53:20.802Z,23.42
2022-09-06T10:56:01.845Z,23.62
2022-09-06T11:01:42.171Z,24.10
2022-09-06T11:04:20.394Z,24.35
2022-09-06T11:06:53.773Z,24.56
2022-09-06T11:09:33.019Z,24.72
2022-09-06T11:12:22.877Z,24.93
2022-09-06T11:14:52.420Z,25.25
2022-09-06T11:17:41.651Z,25.52
2022-09-06T11:20:35.145Z,25.77
2022-09-06T11:23:37.733Z,26.06
2022-09-06T11:26:55.543Z,26.41
2022-09-06T11:29:27.527Z,26.76
2022-09-06T11:34:57.026Z,27.32
2022-09-06T11:37:36.932Z,27.56
2022-09-06T11:40:32.118Z,27.77
2022-09-06T11:43:01.482Z,28.08
2022-09-06T11:45:53.003Z,28.29
2022-09-06T11:48:24.790Z,28.64
2022-09-06T11:50:59.214Z,28.98
2022-09-06T11:53:34.435Z,29.37
2022-09-06T11:56:03.345Z,29.78
2022-09-06T11:58:38.014Z,30.15
2022-09-06T12:01:12.968Z,30.64
2022-09-06T12:04:10.253Z,31.38
2022-09-06T12:07:12.497Z,32.28
2022-09-06T12:09:43.059Z,33.13
2022-09-06T12:12:16.778Z,33.75
2022-09-06T12:14:49.511Z,34.31
2022-09-06T12:17:20.478Z,34.86
2022-09-06T12:19:52.092Z,35.25
2022-09-06T12:22:29.708Z,35.56
2022-09-06T12:25:35.214Z,35.83
2022-09-06T12:28:23.784Z,36.14
2022-09-06T12:30:53.719Z,36.38
2022-09-06T12:33:39.027Z,36.60
2022-09-06T12:36:29.886Z,36.81
2022-09-06T12:39:16.502Z,36.96
2022-09-06T12:41:50.682Z,37.04
2022-09-06T12:44:28.315Z,37.08
2022-09-06T12:47:03.417Z,37.01
2022-09-06T12:49:32.340Z,36.90
2022-09-06T12:52:27.401Z,36.83
2022-09-06T12:54:56.078Z,36.81
2022-09-06T12:57:26.611Z,36.78
2022-09-06T12:59:58.625Z,36.72
2022-09-06T13:02:43.110Z,36.71
2022-09-06T13:05:13.632Z,36.72
2022-09-06T13:07:49.222Z,36.68
2022-09-06T13:10:22.525Z,36.59
2022-09-06T13:12:53.208Z,36.44
2022-09-06T13:15:31.567Z,36.29
2022-09-06T13:18:22.702Z,36.18
2022-09-06T13:21:00.426Z,36.12
2022-09-06T13:23:31.120Z,36.11
2022-09-06T13:25:59.881Z,36.08
2022-09-06T13:28:30.093Z,36.00
2022-09-06T13:31:18.531Z,35.93
2022-09-06T13:33:57.398Z,35.89
2022-09-06T13:36:32.910Z,35.83
2022-09-06T13:39:04.140Z,35.75
2022-09-06T13:41:37.606Z,35.67
2022-09-06T13:44:18.682Z,35.64
2022-09-06T13:46:47.512Z,35.61
2022-09-06T13:49:16.157Z,35.55
2022-09-06T13:51:44.842Z,35.45
2022-09-06T13:54:14.616Z,35.31
2022-09-06T13:56:46.253Z,35.20
2022-09-06T13:59:15.319Z,35.08
2022-09-06T14:01:47.382Z,34.98
2022-09-06T14:04:21.490Z,34.83
2022-09-06T14:06:50.160Z,34.64
2022-09-06T14:09:19.271Z,34.52
2022-09-06T14:11:48.480Z,34.30
2022-09-06T14:14:18.730Z,34.06
2022-09-06T14:16:48.024Z,33.86
2022-09-06T14:19:17.283Z,33.64
2022-09-06T14:21:46.147Z,33.40
2022-09-06T14:24:14.990Z,33.20
2022-09-06T14:26:43.339Z,33.01
2022-09-06T14:29:12.024Z,32.85
2022-09-06T14:31:41.021Z,32.66
2022-09-06T14:34:09.704Z,32.46
2022-09-06T14:36:38.723Z,32.27
2022-09-06T14:39:07.274Z,32.13
2022-09-06T14:41:35.658Z,32.00
2022-09-06T14:44:04.651Z,31.89
2022-09-06T14:46:33.273Z,31.76
2022-09-06T14:49:06.371Z,31.68
2022-09-06T14:51:37.110Z,31.58
2022-09-06T14:54:13.920Z,31.48
2022-09-06T14:56:43.988Z,31.36
2022-09-06T14:59:13.458Z,31.26
2022-09-06T15:01:42.428Z,31.21
2022-09-06T15:04:14.717Z,31.18
2022-09-06T15:06:47.358Z,31.09
2022-09-06T15:09:17.555Z,30.99
2022-09-06T15:11:51.478Z,30.88
2022-09-06T15:14:30.046Z,30.75
2022-09-06T15:17:00.343Z,30.64
2022-09-06T15:19:30.283Z,30.52
2022-09-06T15:21:59.148Z,30.42
2022-09-06T15:24:28.896Z,30.35
2022-09-06T15:26:58.039Z,30.27
2022-09-06T15:29:27.606Z,30.17
2022-09-06T15:31:57.531Z,30.04
2022-09-06T15:34:26.907Z,29.89
2022-09-06T15:36:56.926Z,29.71
2022-09-06T15:39:26.028Z,29.54
2022-09-06T15:41:58.700Z,29.40
2022-09-06T15:44:27.778Z,29.31
2022-09-06T15:47:07.256Z,29.21
2022-09-06T15:49:37.439Z,29.09
2022-09-06T15:52:07.696Z,28.96
2022-09-06T15:54:57.530Z,28.82
2022-09-06T15:57:35.489Z,28.62
2022-09-06T16:00:05.477Z,28.43
2022-09-06T16:02:34.457Z,28.29
2022-09-06T16:05:08.917Z,28.13
2022-09-06T16:07:41.263Z,27.98
2022-09-06T16:10:20.598Z,27.82
2022-09-06T16:12:52.107Z,27.71
2022-09-06T16:15:26.575Z,27.62
2022-09-06T16:18:05.702Z,27.54
2022-09-06T16:20:38.215Z,27.44
2022-09-06T16:23:09.429Z,27.31
2022-09-06T16:25:38.546Z,27.18
2022-09-06T16:28:07.189Z,27.03
2022-09-06T16:30:41.083Z,26.84
2022-09-06T16:33:13.838Z,26.62
2022-09-06T16:35:43.404Z,26.37
2022-09-06T16:38:15.155Z,25.99
2022-09-06T16:40:46.396Z,25.47
2022-09-06T16:43:35.903Z,24.83
2022-09-06T16:46:05.497Z,24.33
2022-09-06T16:48:38.272Z,23.80
2022-09-06T16:51:15.942Z,23.29
2022-09-06T16:53:47.557Z,22.79
2022-09-06T16:56:18.532Z,22.34
2022-09-06T16:58:56.458Z,21.91
2022-09-06T17:01:27.234Z,21.48
2022-09-06T17:03:56.221Z,21.10
2022-09-06T17:06:25.177Z,20.75
2022-09-06T17:08:58.730Z,20.43
2022-09-06T17:11:29.311Z,20.12
2022-09-06T17:13:58.302Z,19.84
2022-09-06T17:16:45.383Z,19.55
2022-09-06T17:19:14.820Z,19.23
2022-09-06T17:21:46.761Z,18.96
2022-09-06T17:24:15.802Z,18.68
2022-09-06T17:26:44.256Z,18.49
2022-09-06T17:29:13.156Z,18.26
2022-09-06T17:31:42.009Z,18.03
2022-09-06T17:34:11.769Z,17.83
2022-09-06T17:36:42.994Z,17.63
2022-09-06T17:39:21.407Z,17.45
2022-09-06T17:41:56.283Z,17.27
2022-09-06T17:44:26.971Z,17.09
2022-09-06T17:47:14.373Z,16.94
2022-09-06T17:49:44.110Z,16.76
2022-09-06T17:52:14.020Z,16.61
2022-09-06T17:54:44.842Z,16.47
2022-09-06T17:57:14.025Z,16.34
2022-09-06T17:59:43.149Z,16.22
2022-09-06T18:02:12.147Z,16.10
2022-09-06T18:04:41.143Z,15.97
2022-09-06T18:07:10.047Z,15.86
2022-09-06T18:09:40.610Z,15.76
2022-09-06T18:12:09.753Z,15.65
2022-09-06T18:14:38.643Z,15.54
2022-09-06T18:17:09.304Z,15.45
2022-09-06T18:19:38.679Z,15.36
2022-09-06T18:22:07.891Z,15.28
2022-09-06T18:24:39.122Z,15.21
2022-09-06T18:27:14.462Z,15.14
2022-09-06T18:29:48.574Z,15.08
2022-09-06T18:32:17.875Z,15.02
2022-09-06T18:34:52.298Z,14.97
2022-09-06T18:37:21.948Z,14.92
2022-09-06T18:39:51.060Z,14.87
2022-09-06T18:42:22.243Z,14.83
2022-09-06T18:44:51.750Z,14.79
2022-09-06T18:47:23.917Z,14.76
2022-09-06T18:50:22.337Z,14.72
2022-09-06T18:52:51.847Z,14.68
2022-09-06T18:55:26.326Z,14.65
2022-09-06T18:58:00.892Z,14.61
2022-09-06T19:00:38.737Z,14.56
2022-09-06T19:03:15.482Z,14.51
2022-09-06T19:05:47.980Z,14.46
2022-09-06T19:08:17.610Z,14.41
2022-09-06T19:10:47.111Z,14.36
2022-09-06T19:13:19.406Z,14.31
2022-09-06T19:16:17.188Z,14.25
2022-09-06T19:18:50.131Z,14.17
2022-09-06T19:21:25.053Z,14.17
2022-09-06T19:24:01.027Z,14.41
2022-09-06T19:26:38.524Z,14.70
2022-09-06T19:29:39.974Z,14.93
2022-09-06T19:32:29.008Z,15.11
2022-09-06T19:35:50.987Z,15.26
2022-09-06T19:39:03.154Z,15.38
2022-09-06T19:42:06.163Z,15.47
2022-09-06T19:45:16.633Z,15.54
2022-09-06T19:48:58.752Z,15.46
2022-09-06T19:51:37.969Z,15.09
2022-09-06T20:09:42.498Z,13.89
2022-09-06T20:13:00.958Z,14.17
2022-09-06T20:16:31.742Z,14.41
2022-09-06T20:19:23.379Z,14.58
2022-09-06T20:22:23.166Z,14.68
2022-09-06T20:25:49.260Z,14.76
2022-09-06T20:28:58.599Z,14.83
2022-09-06T20:32:16.055Z,14.88
2022-09-06T20:34:53.705Z,14.92
2022-09-06T20:38:03.265Z,14.94
2022-09-06T20:41:34.114Z,14.94
2022-09-06T20:45:16.011Z,14.95
2022-09-06T20:48:35.429Z,14.95
2022-09-06T20:51:56.195Z,14.94
2022-09-06T20:54:44.611Z,14.93
2022-09-06T20:57:19.475Z,14.92
2022-09-06T21:00:19.989Z,14.93
2022-09-06T21:03:17.669Z,14.90
2022-09-06T21:06:30.265Z,14.89
2022-09-06T21:09:45.870Z,14.86
2022-09-06T21:13:06.985Z,14.84
2022-09-06T21:16:14.060Z,14.82
2022-09-06T21:19:29.000Z,14.80
2022-09-06T21:22:40.760Z,14.76
2022-09-06T21:26:14.885Z,14.70
2022-09-06T21:29:13.021Z,14.66
2022-09-06T21:32:53.599Z,14.62
2022-09-06T21:36:00.692Z,14.58
2022-09-06T21:38:39.404Z,14.54
2022-09-06T21:42:09.736Z,14.49
2022-09-06T21:45:38.746Z,14.42
2022-09-06T21:48:43.985Z,14.38
2022-09-06T21:51:48.200Z,14.35
2022-09-06T21:54:47.493Z,14.33
2022-09-06T21:57:32.849Z,14.30
2022-09-06T22:00:53.769Z,14.27
2022-09-06T22:04:20.643Z,14.22
2022-09-06T22:07:49.994Z,14.18
2022-09-06T22:10:48.025Z,14.13
2022-09-06T22:14:17.535Z,14.09
2022-09-06T22:17:24.623Z,14.05
2022-09-06T22:20:34.008Z,14.05
2022-09-06T22:23:43.401Z,14.02
2022-09-06T22:42:16.600Z,13.91
2022-09-06T22:45:49.920Z,13.88
2022-09-06T23:00:36.783Z,13.76
2022-09-06T23:03:51.700Z,13.76
2022-09-06T23:06:42.934Z,13.74
2022-09-06T23:09:34.832Z,13.72
2022-09-06T23:12:22.739Z,13.71
2022-09-06T23:15:48.524Z,13.69
2022-09-06T23:18:37.281Z,13.65
2022-09-06T23:21:34.627Z,13.63
2022-09-06T23:24:04.034Z,13.59
2022-09-06T23:27:21.921Z,13.59
2022-09-06T23:30:11.701Z,13.55
2022-09-06T23:32:51.043Z,13.53
2022-09-06T23:35:44.297Z,13.48
2022-09-06T23:38:28.474Z,13.45
2022-09-06T23:41:03.384Z,13.41
2022-09-06T23:43:46.603Z,13.39
2022-09-06T23:46:30.223Z,13.36
2022-09-06T23:49:03.127Z,13.34
2022-09-06T23:52:03.348Z,13.30
2022-09-06T23:55:23.952Z,13.27
2022-09-06T23:58:13.428Z,13.28
